sensor_id;sensor_type;location;lat;lon;timestamp;pressure;altitude;pressure_sealevel;temperature;humidity
70521;BME280;58442;52.716;23.560;2023-07-16T00:01:12;101411.05;;;18.50;66.50
70521;BME280;58442;52.716;23.560;2023-07-16T00:03:22;101417.34;;;18.47;66.55
70521;BME280;58442;52.716;23.560;2023-07-16T00:05:24;101407.07;;;18.44;66.66
70521;BME280;58442;52.716;23.560;2023-07-16T00:07:25;101400.39;;;18.41;66.74
70521;BME280;58442;52.716;23.560;2023-07-16T00:09:27;101404.32;;;18.40;66.77
70521;BME280;58442;52.716;23.560;2023-07-16T00:11:37;101409.39;;;18.38;66.84
70521;BME280;58442;52.716;23.560;2023-07-16T00:13:39;101407.05;;;18.37;66.92
70521;BME280;58442;52.716;23.560;2023-07-16T00:15:46;101403.11;;;18.38;66.92
70521;BME280;58442;52.716;23.560;2023-07-16T00:17:48;101397.99;;;18.36;66.91
70521;BME280;58442;52.716;23.560;2023-07-16T00:19:52;101401.92;;;18.35;66.88
70521;BME280;58442;52.716;23.560;2023-07-16T00:21:53;101407.03;;;18.33;66.85
70521;BME280;58442;52.716;23.560;2023-07-16T00:23:55;101405.03;;;18.30;67.00
70521;BME280;58442;52.716;23.560;2023-07-16T00:25:56;101405.43;;;18.28;67.08
70521;BME280;58442;52.716;23.560;2023-07-16T00:28:07;101395.98;;;18.26;67.10
70521;BME280;58442;52.716;23.560;2023-07-16T00:30:08;101392.80;;;18.24;67.18
70521;BME280;58442;52.716;23.560;2023-07-16T00:32:10;101395.95;;;18.22;67.25
70521;BME280;58442;52.716;23.560;2023-07-16T00:34:12;101395.94;;;18.19;67.32
70521;BME280;58442;52.716;23.560;2023-07-16T00:36:22;101387.25;;;18.17;67.42
70521;BME280;58442;52.716;23.560;2023-07-16T00:38:23;101392.36;;;18.15;67.46
70521;BME280;58442;52.716;23.560;2023-07-16T00:40:24;101392.76;;;18.13;67.53
70521;BME280;58442;52.716;23.560;2023-07-16T00:42:26;101393.93;;;18.12;67.59
70521;BME280;58442;52.716;23.560;2023-07-16T00:44:36;101389.96;;;18.10;67.63
70521;BME280;58442;52.716;23.560;2023-07-16T00:46:38;101396.64;;;18.09;67.71
70521;BME280;58442;52.716;23.560;2023-07-16T00:48:40;101398.59;;;18.08;67.73
70521;BME280;58442;52.716;23.560;2023-07-16T00:50:42;101386.41;;;18.06;67.79
70521;BME280;58442;52.716;23.560;2023-07-16T00:52:51;101384.80;;;18.04;67.82
70521;BME280;58442;52.716;23.560;2023-07-16T00:54:53;101385.98;;;18.03;67.85
70521;BME280;58442;52.716;23.560;2023-07-16T00:56:54;101389.52;;;18.04;67.91
70521;BME280;58442;52.716;23.560;2023-07-16T00:58:56;101391.87;;;18.02;67.94
70521;BME280;58442;52.716;23.560;2023-07-16T01:01:06;101393.44;;;17.99;68.01
70521;BME280;58442;52.716;23.560;2023-07-16T01:03:09;101386.37;;;17.98;68.10
70521;BME280;58442;52.716;23.560;2023-07-16T01:05:11;101391.44;;;17.96;68.18
70521;BME280;58442;52.716;23.560;2023-07-16T01:07:13;101382.38;;;17.92;68.26
70521;BME280;58442;52.716;23.560;2023-07-16T01:09:21;101380.81;;;17.91;68.38
70521;BME280;58442;52.716;23.560;2023-07-16T01:11:23;101381.16;;;17.90;68.42
70521;BME280;58442;52.716;23.560;2023-07-16T01:13:25;101384.70;;;17.90;68.41
70521;BME280;58442;52.716;23.560;2023-07-16T01:15:27;101365.05;;;17.88;68.39
70521;BME280;58442;52.716;23.560;2023-07-16T01:17:35;101376.05;;;17.88;68.39
70521;BME280;58442;52.716;23.560;2023-07-16T01:19:37;101367.41;;;17.86;68.45
70521;BME280;58442;52.716;23.560;2023-07-16T01:21:49;101375.66;;;17.86;68.54
70521;BME280;58442;52.716;23.560;2023-07-16T01:28:44;101370.11;;;17.83;68.60
70521;BME280;58442;52.716;23.560;2023-07-16T01:30:35;101364.22;;;17.81;68.68
70521;BME280;58442;52.716;23.560;2023-07-16T01:32:40;101364.22;;;17.81;68.75
70521;BME280;58442;52.716;23.560;2023-07-16T01:34:42;101359.50;;;17.81;68.76
70521;BME280;58442;52.716;23.560;2023-07-16T01:36:45;101354.79;;;17.82;68.66
70521;BME280;58442;52.716;23.560;2023-07-16T01:38:48;101362.63;;;17.80;68.69
70521;BME280;58442;52.716;23.560;2023-07-16T01:40:49;101355.56;;;17.79;68.73
70521;BME280;58442;52.716;23.560;2023-07-16T01:42:50;101358.67;;;17.77;68.79
70521;BME280;58442;52.716;23.560;2023-07-16T01:44:52;101357.10;;;17.76;68.79
70521;BME280;58442;52.716;23.560;2023-07-16T01:47:10;101361.41;;;17.73;68.89
70521;BME280;58442;52.716;23.560;2023-07-16T01:49:12;101361.01;;;17.71;68.96
70521;BME280;58442;52.716;23.560;2023-07-16T01:51:14;101357.80;;;17.69;69.03
70521;BME280;58442;52.716;23.560;2023-07-16T01:53:16;101348.36;;;17.67;69.10
70521;BME280;58442;52.716;23.560;2023-07-16T01:55:18;101348.76;;;17.65;69.14
70521;BME280;58442;52.716;23.560;2023-07-16T01:57:20;101346.39;;;17.64;69.23
70521;BME280;58442;52.716;23.560;2023-07-16T01:59:21;101351.08;;;17.63;69.26
70521;BME280;58442;52.716;23.560;2023-07-16T02:01:23;101349.13;;;17.64;69.28
70521;BME280;58442;52.716;23.560;2023-07-16T02:03:33;101347.53;;;17.63;69.33
70521;BME280;58442;52.716;23.560;2023-07-16T02:05:34;101354.99;;;17.62;69.31
70521;BME280;58442;52.716;23.560;2023-07-16T02:07:36;101360.14;;;17.64;69.27
70521;BME280;58442;52.716;23.560;2023-07-16T02:09:37;101342.42;;;17.61;69.25
70521;BME280;58442;52.716;23.560;2023-07-16T02:11:48;101343.21;;;17.62;69.24
70521;BME280;58442;52.716;23.560;2023-07-16T02:13:49;101344.39;;;17.61;69.29
70521;BME280;58442;52.716;23.560;2023-07-16T02:15:50;101351.05;;;17.60;69.31
70521;BME280;58442;52.716;23.560;2023-07-16T02:17:52;101340.06;;;17.60;69.34
70521;BME280;58442;52.716;23.560;2023-07-16T02:20:03;101347.91;;;17.58;69.32
70521;BME280;58442;52.716;23.560;2023-07-16T02:22:08;101350.66;;;17.58;69.39
70521;BME280;58442;52.716;23.560;2023-07-16T02:24:09;101345.16;;;17.58;69.43
70521;BME280;58442;52.716;23.560;2023-07-16T02:26:11;101336.48;;;17.56;69.48
70521;BME280;58442;52.716;23.560;2023-07-16T02:28:17;101334.91;;;17.55;69.50
70521;BME280;58442;52.716;23.560;2023-07-16T02:30:19;101340.41;;;17.55;69.58
70521;BME280;58442;52.716;23.560;2023-07-16T02:32:20;101344.32;;;17.54;69.61
70521;BME280;58442;52.716;23.560;2023-07-16T02:34:22;101347.46;;;17.52;69.66
70521;BME280;58442;52.716;23.560;2023-07-16T02:36:32;101345.50;;;17.53;69.71
70521;BME280;58442;52.716;23.560;2023-07-16T02:38:33;101340.39;;;17.51;69.75
70521;BME280;58442;52.716;23.560;2023-07-16T02:40:35;101346.67;;;17.52;69.78
70521;BME280;58442;52.716;23.560;2023-07-16T02:42:36;101346.67;;;17.52;69.75
70521;BME280;58442;52.716;23.560;2023-07-16T02:44:47;101347.46;;;17.52;69.76
70521;BME280;58442;52.716;23.560;2023-07-16T02:46:48;101343.93;;;17.52;69.83
70521;BME280;58442;52.716;23.560;2023-07-16T02:48:50;101339.60;;;17.50;69.86
70521;BME280;58442;52.716;23.560;2023-07-16T02:50:51;101343.49;;;17.49;69.88
70521;BME280;58442;52.716;23.560;2023-07-16T02:53:03;101350.17;;;17.48;69.95
70521;BME280;58442;52.716;23.560;2023-07-16T02:55:05;101352.12;;;17.48;69.99
70521;BME280;58442;52.716;23.560;2023-07-16T02:57:07;101351.34;;;17.47;70.03
70521;BME280;58442;52.716;23.560;2023-07-16T02:59:08;101349.38;;;17.48;70.01
70521;BME280;58442;52.716;23.560;2023-07-16T03:01:17;101354.87;;;17.48;70.04
70521;BME280;58442;52.716;23.560;2023-07-16T03:03:18;101345.84;;;17.47;70.24
70521;BME280;58442;52.716;23.560;2023-07-16T03:05:19;101351.34;;;17.47;70.10
70521;BME280;58442;52.716;23.560;2023-07-16T03:07:21;101347.42;;;17.48;70.12
70521;BME280;58442;52.716;23.560;2023-07-16T03:09:31;101344.67;;;17.48;70.12
70521;BME280;58442;52.716;23.560;2023-07-16T03:11:33;101348.99;;;17.49;70.18
70521;BME280;58442;52.716;23.560;2023-07-16T03:13:34;101343.49;;;17.49;70.20
70521;BME280;58442;52.716;23.560;2023-07-16T03:15:35;101352.16;;;17.52;70.17
70521;BME280;58442;52.716;23.560;2023-07-16T03:17:46;101347.85;;;17.50;70.22
70521;BME280;58442;52.716;23.560;2023-07-16T03:19:48;101357.66;;;17.52;70.28
70521;BME280;58442;52.716;23.560;2023-07-16T03:21:49;101351.38;;;17.51;70.30
70521;BME280;58442;52.716;23.560;2023-07-16T03:23:51;101354.91;;;17.52;70.33
70521;BME280;58442;52.716;23.560;2023-07-16T03:26:01;101344.71;;;17.52;70.38
70521;BME280;58442;52.716;23.560;2023-07-16T03:28:02;101347.85;;;17.50;70.47
70521;BME280;58442;52.716;23.560;2023-07-16T03:30:05;101340.39;;;17.51;70.52
70521;BME280;58442;52.716;23.560;2023-07-16T03:32:07;101335.68;;;17.52;70.49
70521;BME280;58442;52.716;23.560;2023-07-16T03:34:16;101334.50;;;17.53;70.51
70521;BME280;58442;52.716;23.560;2023-07-16T03:36:18;101338.44;;;17.52;70.58
70521;BME280;58442;52.716;23.560;2023-07-16T03:38:19;101339.60;;;17.50;70.60
70521;BME280;58442;52.716;23.560;2023-07-16T03:40:24;101341.18;;;17.52;70.59
70521;BME280;58442;52.716;23.560;2023-07-16T03:42:30;101340.78;;;17.53;70.59
70521;BME280;58442;52.716;23.560;2023-07-16T03:44:32;101331.76;;;17.53;70.67
70521;BME280;58442;52.716;23.560;2023-07-16T03:46:33;101340.01;;;17.53;70.68
70521;BME280;58442;52.716;23.560;2023-07-16T03:48:35;101342.76;;;17.53;70.70
70521;BME280;58442;52.716;23.560;2023-07-16T03:50:46;101350.99;;;17.53;70.75
70521;BME280;58442;52.716;23.560;2023-07-16T03:52:48;101340.78;;;17.53;70.81
70521;BME280;58442;52.716;23.560;2023-07-16T03:54:49;101348.26;;;17.56;70.83
70521;BME280;58442;52.716;23.560;2023-07-16T03:56:51;101344.38;;;17.57;70.77
70521;BME280;58442;52.716;23.560;2023-07-16T03:59:00;101343.98;;;17.59;70.77
70521;BME280;58442;52.716;23.560;2023-07-16T04:01:01;101346.74;;;17.59;70.81
70521;BME280;58442;52.716;23.560;2023-07-16T04:03:03;101345.56;;;17.60;70.86
70521;BME280;58442;52.716;23.560;2023-07-16T04:05:05;101355.38;;;17.61;70.88
70521;BME280;58442;52.716;23.560;2023-07-16T04:07:15;101351.45;;;17.62;70.94
70521;BME280;58442;52.716;23.560;2023-07-16T04:09:16;101355.78;;;17.63;71.02
70521;BME280;58442;52.716;23.560;2023-07-16T04:11:17;101346.39;;;17.64;71.05
70521;BME280;58442;52.716;23.560;2023-07-16T04:13:19;101348.36;;;17.67;71.05
70521;BME280;58442;52.716;23.560;2023-07-16T04:15:29;101345.23;;;17.68;71.07
70521;BME280;58442;52.716;23.560;2023-07-16T04:17:31;101343.72;;;17.71;71.14
70521;BME280;58442;52.716;23.560;2023-07-16T04:19:32;101353.16;;;17.73;71.20
70521;BME280;58442;52.716;23.560;2023-07-16T04:21:34;101357.10;;;17.76;71.19
70521;BME280;58442;52.716;23.560;2023-07-16T04:23:44;101356.35;;;17.79;71.22
70521;BME280;58442;52.716;23.560;2023-07-16T04:25:46;101354.00;;;17.81;71.25
70521;BME280;58442;52.716;23.560;2023-07-16T04:27:47;101354.83;;;17.85;71.24
70521;BME280;58442;52.716;23.560;2023-07-16T04:29:48;101356.80;;;17.88;71.23
70521;BME280;58442;52.716;23.560;2023-07-16T04:31:59;101358.41;;;17.93;71.27
70521;BME280;58442;52.716;23.560;2023-07-16T04:34:00;101363.53;;;17.94;71.33
70521;BME280;58442;52.716;23.560;2023-07-16T04:36:02;101361.96;;;17.97;71.37
70521;BME280;58442;52.716;23.560;2023-07-16T04:38:04;101366.71;;;18.00;71.49
70521;BME280;58442;52.716;23.560;2023-07-16T04:40:14;101369.88;;;18.02;71.40
70521;BME280;58442;52.716;23.560;2023-07-16T04:42:15;101367.95;;;18.06;71.46
70521;BME280;58442;52.716;23.560;2023-07-16T04:44:17;101365.59;;;18.08;71.49
70521;BME280;58442;52.716;23.560;2023-07-16T04:46:19;101361.27;;;18.11;71.47
70521;BME280;58442;52.716;23.560;2023-07-16T04:48:29;101370.35;;;18.15;71.49
70521;BME280;58442;52.716;23.560;2023-07-16T04:50:30;101366.81;;;18.18;71.54
70521;BME280;58442;52.716;23.560;2023-07-16T04:52:31;101364.10;;;18.21;71.57
70521;BME280;58442;52.716;23.560;2023-07-16T04:54:36;101372.36;;;18.25;71.34
70521;BME280;58442;52.716;23.560;2023-07-16T04:56:43;101372.40;;;18.28;71.60
70521;BME280;58442;52.716;23.560;2023-07-16T04:58:45;101374.79;;;18.34;71.65
70521;BME280;58442;52.716;23.560;2023-07-16T05:00:46;101373.62;;;18.38;71.66
70521;BME280;58442;52.716;23.560;2023-07-16T05:02:48;101371.69;;;18.42;71.67
70521;BME280;58442;52.716;23.560;2023-07-16T05:04:58;101374.08;;;18.47;71.68
70521;BME280;58442;52.716;23.560;2023-07-16T05:07:01;101377.26;;;18.53;71.74
70521;BME280;58442;52.716;23.560;2023-07-16T05:09:03;101370.97;;;18.56;71.80
70521;BME280;58442;52.716;23.560;2023-07-16T05:11:05;101372.15;;;18.58;71.85
70521;BME280;58442;52.716;23.560;2023-07-16T05:13:13;101374.94;;;18.66;71.87
70521;BME280;58442;52.716;23.560;2023-07-16T05:15:16;101376.57;;;18.70;71.94
70521;BME280;58442;52.716;23.560;2023-07-16T05:17:17;101371.09;;;18.74;71.96
70521;BME280;58442;52.716;23.560;2023-07-16T05:19:19;101369.51;;;18.80;71.94
70521;BME280;58442;52.716;23.560;2023-07-16T05:21:28;101375.44;;;18.85;71.90
70521;BME280;58442;52.716;23.560;2023-07-16T05:23:29;101372.32;;;18.91;71.95
70521;BME280;58442;52.716;23.560;2023-07-16T05:25:30;101382.18;;;18.99;71.92
70521;BME280;58442;52.716;23.560;2023-07-16T05:27:32;101366.84;;;19.05;71.85
70521;BME280;58442;52.716;23.560;2023-07-16T05:29:42;101366.08;;;19.11;71.84
70521;BME280;58442;52.716;23.560;2023-07-16T05:31:44;101365.70;;;19.17;71.88
70521;BME280;58442;52.716;23.560;2023-07-16T05:33:47;101364.14;;;19.23;71.86
70521;BME280;58442;52.716;23.560;2023-07-16T05:35:48;101368.09;;;19.29;71.80
70521;BME280;58442;52.716;23.560;2023-07-16T05:37:57;101370.46;;;19.37;71.77
70521;BME280;58442;52.716;23.560;2023-07-16T05:39:59;101368.49;;;19.45;71.74
70521;BME280;58442;52.716;23.560;2023-07-16T05:42:00;101372.06;;;19.56;71.65
70521;BME280;58442;52.716;23.560;2023-07-16T05:44:03;101371.30;;;19.66;71.55
70521;BME280;58442;52.716;23.560;2023-07-16T05:46:12;101365.00;;;19.77;71.45
70521;BME280;58442;52.716;23.560;2023-07-16T05:48:13;101365.78;;;19.84;71.44
70521;BME280;58442;52.716;23.560;2023-07-16T05:50:15;101368.13;;;19.93;71.39
70521;BME280;58442;52.716;23.560;2023-07-16T05:52:17;101374.43;;;20.01;71.31
70521;BME280;58442;52.716;23.560;2023-07-16T05:54:26;101367.30;;;20.10;71.22
70521;BME280;58442;52.716;23.560;2023-07-16T05:56:28;101361.40;;;20.19;71.20
70521;BME280;58442;52.716;23.560;2023-07-16T05:58:29;101366.49;;;20.28;71.12
70521;BME280;58442;52.716;23.560;2023-07-16T06:00:31;101365.68;;;20.34;71.06
70521;BME280;58442;52.716;23.560;2023-07-16T06:02:42;101358.57;;;20.40;71.03
70521;BME280;58442;52.716;23.560;2023-07-16T06:04:44;101362.53;;;20.46;71.04
70521;BME280;58442;52.716;23.560;2023-07-16T06:06:45;101368.81;;;20.51;71.05
70521;BME280;58442;52.716;23.560;2023-07-16T06:08:46;101361.70;;;20.60;71.00
70521;BME280;58442;52.716;23.560;2023-07-16T06:10:56;101359.27;;;20.73;70.83
70521;BME280;58442;52.716;23.560;2023-07-16T06:12:58;101353.30;;;20.82;70.78
70521;BME280;58442;52.716;23.560;2023-07-16T06:15:00;101359.16;;;20.94;70.65
70521;BME280;58442;52.716;23.560;2023-07-16T06:17:01;101359.09;;;21.05;70.49
70521;BME280;58442;52.716;23.560;2023-07-16T06:19:11;101362.17;;;21.18;70.38
70521;BME280;58442;52.716;23.560;2023-07-16T06:21:12;101362.14;;;21.28;70.32
70521;BME280;58442;52.716;23.560;2023-07-16T06:23:14;101360.48;;;21.42;70.15
70521;BME280;58442;52.716;23.560;2023-07-16T06:25:17;101364.72;;;21.53;69.99
70521;BME280;58442;52.716;23.560;2023-07-16T06:27:26;101360.26;;;21.67;69.82
70521;BME280;58442;52.716;23.560;2023-07-16T06:29:27;101359.39;;;21.77;69.73
70521;BME280;58442;52.716;23.560;2023-07-16T06:31:28;101351.77;;;21.88;69.55
70521;BME280;58442;52.716;23.560;2023-07-16T06:33:30;101348.12;;;21.98;69.39
70521;BME280;58442;52.716;23.560;2023-07-16T06:35:44;101349.63;;;22.10;69.16
70521;BME280;58442;52.716;23.560;2023-07-16T06:37:46;101343.15;;;22.24;69.00
70521;BME280;58442;52.716;23.560;2023-07-16T06:39:48;101343.01;;;22.34;68.91
70521;BME280;58442;52.716;23.560;2023-07-16T06:41:50;101345.61;;;22.49;68.73
70521;BME280;58442;52.716;23.560;2023-07-16T06:43:55;101348.98;;;22.63;68.55
70521;BME280;58442;52.716;23.560;2023-07-16T06:45:56;101351.16;;;22.79;68.34
70521;BME280;58442;52.716;23.560;2023-07-16T06:47:58;101355.70;;;22.97;68.02
70521;BME280;58442;52.716;23.560;2023-07-16T06:49:59;101354.67;;;23.14;67.74
70521;BME280;58442;52.716;23.560;2023-07-16T06:54:31;101352.48;;;23.52;67.10
70521;BME280;58442;52.716;23.560;2023-07-16T06:56:32;101359.39;;;23.67;66.83
70521;BME280;58442;52.716;23.560;2023-07-16T06:58:34;101359.95;;;23.82;66.61
70521;BME280;58442;52.716;23.560;2023-07-16T07:00:35;101362.04;;;23.98;66.28
70521;BME280;58442;52.716;23.560;2023-07-16T07:02:45;101355.01;;;24.13;65.99
70521;BME280;58442;52.716;23.560;2023-07-16T07:04:47;101357.17;;;24.25;65.79
70521;BME280;58442;52.716;23.560;2023-07-16T07:06:49;101357.35;;;24.38;65.58
70521;BME280;58442;52.716;23.560;2023-07-16T07:08:50;101362.19;;;24.54;65.25
70521;BME280;58442;52.716;23.560;2023-07-16T07:11:00;101353.11;;;24.70;64.98
70521;BME280;58442;52.716;23.560;2023-07-16T07:13:02;101355.52;;;24.88;64.67
70521;BME280;58442;52.716;23.560;2023-07-16T07:15:06;101353.20;;;25.02;64.46
70521;BME280;58442;52.716;23.560;2023-07-16T07:17:07;101352.90;;;25.17;64.21
70521;BME280;58442;52.716;23.560;2023-07-16T07:19:15;101354.66;;;25.27;64.07
70521;BME280;58442;52.716;23.560;2023-07-16T07:21:35;101352.66;;;25.44;63.87
70521;BME280;58442;52.716;23.560;2023-07-16T07:23:36;101348.66;;;25.61;63.57
70521;BME280;58442;52.716;23.560;2023-07-16T07:25:37;101356.57;;;25.79;63.15
70521;BME280;58442;52.716;23.560;2023-07-16T07:27:39;101346.61;;;25.94;62.80
70521;BME280;58442;52.716;23.560;2023-07-16T07:29:40;101353.39;;;26.09;62.57
70521;BME280;58442;52.716;23.560;2023-07-16T07:31:41;101350.74;;;26.18;62.42
70521;BME280;58442;52.716;23.560;2023-07-16T07:33:44;101349.68;;;26.29;62.31
70521;BME280;58442;52.716;23.560;2023-07-16T07:35:45;101353.29;;;26.42;62.00
70521;BME280;58442;52.716;23.560;2023-07-16T07:37:47;101356.34;;;26.60;61.58
70521;BME280;58442;52.716;23.560;2023-07-16T07:39:52;101353.04;;;26.78;61.07
70521;BME280;58442;52.716;23.560;2023-07-16T07:41:59;101354.04;;;26.97;60.73
70521;BME280;58442;52.716;23.560;2023-07-16T07:44:00;101352.06;;;27.10;60.35
70521;BME280;58442;52.716;23.560;2023-07-16T07:46:01;101359.66;;;27.22;59.92
70521;BME280;58442;52.716;23.560;2023-07-16T07:48:03;101362.91;;;27.34;59.71
70521;BME280;58442;52.716;23.560;2023-07-16T07:50:13;101352.82;;;27.49;59.36
70521;BME280;58442;52.716;23.560;2023-07-16T07:52:15;101353.59;;;27.62;58.85
70521;BME280;58442;52.716;23.560;2023-07-16T07:54:16;101350.79;;;27.75;58.54
70521;BME280;58442;52.716;23.560;2023-07-16T07:56:18;101351.99;;;27.87;58.26
70521;BME280;58442;52.716;23.560;2023-07-16T07:58:28;101351.39;;;27.92;58.17
70521;BME280;58442;52.716;23.560;2023-07-16T08:00:29;101356.41;;;27.97;58.02
70521;BME280;58442;52.716;23.560;2023-07-16T08:02:31;101354.80;;;28.08;57.71
70521;BME280;58442;52.716;23.560;2023-07-16T08:04:32;101346.95;;;28.16;57.39
70521;BME280;58442;52.716;23.560;2023-07-16T08:06:43;101342.64;;;28.24;57.08
70521;BME280;58442;52.716;23.560;2023-07-16T08:08:44;101336.70;;;28.35;56.74
70521;BME280;58442;52.716;23.560;2023-07-16T08:10:45;101343.43;;;28.47;56.45
70521;BME280;58442;52.716;23.560;2023-07-16T08:12:48;101340.10;;;28.61;56.08
70521;BME280;58442;52.716;23.560;2023-07-16T08:14:58;101337.83;;;28.69;55.77
70521;BME280;58442;52.716;23.560;2023-07-16T08:16:59;101341.91;;;28.77;55.47
70521;BME280;58442;52.716;23.560;2023-07-16T08:19:00;101345.83;;;28.88;55.22
70521;BME280;58442;52.716;23.560;2023-07-16T08:21:02;101351.84;;;29.00;54.88
70521;BME280;58442;52.716;23.560;2023-07-16T08:23:12;101336.18;;;29.11;54.57
70521;BME280;58442;52.716;23.560;2023-07-16T08:25:13;101344.47;;;29.24;54.23
70521;BME280;58442;52.716;23.560;2023-07-16T08:27:15;101341.99;;;29.35;53.87
70521;BME280;58442;52.716;23.560;2023-07-16T08:29:16;101336.26;;;29.48;53.53
70521;BME280;58442;52.716;23.560;2023-07-16T08:31:26;101338.66;;;29.59;53.21
70521;BME280;58442;52.716;23.560;2023-07-16T08:33:28;101350.34;;;29.66;52.84
70521;BME280;58442;52.716;23.560;2023-07-16T08:35:29;101338.35;;;29.75;52.61
70521;BME280;58442;52.716;23.560;2023-07-16T08:37:31;101340.84;;;29.82;52.31
70521;BME280;58442;52.716;23.560;2023-07-16T08:39:41;101330.09;;;29.90;52.34
70521;BME280;58442;52.716;23.560;2023-07-16T08:41:42;101339.29;;;30.00;52.11
70521;BME280;58442;52.716;23.560;2023-07-16T08:43:48;101335.56;;;30.12;51.76
70521;BME280;58442;52.716;23.560;2023-07-16T08:45:50;101328.53;;;30.26;51.38
70521;BME280;58442;52.716;23.560;2023-07-16T08:47:56;101332.41;;;30.37;51.03
70521;BME280;58442;52.716;23.560;2023-07-16T08:49:58;101333.97;;;30.47;50.70
70521;BME280;58442;52.716;23.560;2023-07-16T08:52:02;101329.57;;;30.56;50.52
70521;BME280;58442;52.716;23.560;2023-07-16T08:54:04;101316.28;;;30.65;50.35
70521;BME280;58442;52.716;23.560;2023-07-16T08:56:10;101312.82;;;30.80;50.13
70521;BME280;58442;52.716;23.560;2023-07-16T08:58:13;101330.72;;;30.91;49.75
70521;BME280;58442;52.716;23.560;2023-07-16T09:00:16;101315.69;;;31.03;49.33
70521;BME280;58442;52.716;23.560;2023-07-16T09:02:18;101325.13;;;31.15;48.89
70521;BME280;58442;52.716;23.560;2023-07-16T09:04:25;101319.02;;;31.26;48.69
70521;BME280;58442;52.716;23.560;2023-07-16T09:06:27;101316.45;;;31.37;48.38
70521;BME280;58442;52.716;23.560;2023-07-16T09:08:28;101313.59;;;31.46;47.92
70521;BME280;58442;52.716;23.560;2023-07-16T09:10:30;101311.66;;;31.52;47.65
70521;BME280;58442;52.716;23.560;2023-07-16T09:12:45;101312.36;;;31.62;47.31
70521;BME280;58442;52.716;23.560;2023-07-16T09:14:48;101305.23;;;31.76;47.01
70521;BME280;58442;52.716;23.560;2023-07-16T09:16:52;101290.37;;;31.84;46.65
70521;BME280;58442;52.716;23.560;2023-07-16T09:18:54;101289.49;;;31.93;46.26
70521;BME280;58442;52.716;23.560;2023-07-16T09:20:58;101298.32;;;32.01;45.99
70521;BME280;58442;52.716;23.560;2023-07-16T09:23:03;101298.23;;;32.10;45.67
70521;BME280;58442;52.716;23.560;2023-07-16T09:25:05;101289.40;;;32.17;45.21
70521;BME280;58442;52.716;23.560;2023-07-16T09:27:06;101289.52;;;32.23;44.85
70521;BME280;58442;52.716;23.560;2023-07-16T09:29:12;101286.80;;;32.28;44.67
70521;BME280;58442;52.716;23.560;2023-07-16T09:31:13;101289.40;;;32.32;44.51
70521;BME280;58442;52.716;23.560;2023-07-16T09:33:16;101285.16;;;32.36;44.24
70521;BME280;58442;52.716;23.560;2023-07-16T09:35:17;101284.50;;;32.42;44.09
70521;BME280;58442;52.716;23.560;2023-07-16T09:37:23;101277.70;;;32.48;44.02
70521;BME280;58442;52.716;23.560;2023-07-16T09:39:26;101274.20;;;32.53;43.79
70521;BME280;58442;52.716;23.560;2023-07-16T09:41:28;101270.67;;;32.58;43.56
70521;BME280;58442;52.716;23.560;2023-07-16T09:43:30;101269.49;;;32.65;43.53
70521;BME280;58442;52.716;23.560;2023-07-16T09:45:38;101269.09;;;32.72;43.51
70521;BME280;58442;52.716;23.560;2023-07-16T09:47:39;101267.35;;;32.75;43.58
70521;BME280;58442;52.716;23.560;2023-07-16T09:49:41;101261.73;;;32.75;43.40
70521;BME280;58442;52.716;23.560;2023-07-16T09:51:45;101263.82;;;32.80;43.14
70521;BME280;58442;52.716;23.560;2023-07-16T09:53:53;101259.39;;;32.88;43.00
70521;BME280;58442;52.716;23.560;2023-07-16T09:55:56;101256.16;;;32.95;42.69
70521;BME280;58442;52.716;23.560;2023-07-16T09:58:00;101258.55;;;33.02;42.36
70521;BME280;58442;52.716;23.560;2023-07-16T10:00:06;101258.91;;;33.10;42.19
70521;BME280;58442;52.716;23.560;2023-07-16T10:02:08;101259.77;;;33.16;42.11
70521;BME280;58442;52.716;23.560;2023-07-16T10:04:13;101262.08;;;33.17;41.82
70521;BME280;58442;52.716;23.560;2023-07-16T10:06:15;101255.95;;;33.19;41.57
70521;BME280;58442;52.716;23.560;2023-07-16T10:08:20;101249.34;;;33.22;41.55
70521;BME280;58442;52.716;23.560;2023-07-16T10:10:26;101257.56;;;33.26;41.54
70521;BME280;58442;52.716;23.560;2023-07-16T10:12:28;101251.74;;;33.29;41.38
70521;BME280;58442;52.716;23.560;2023-07-16T10:14:30;101252.77;;;33.32;41.19
70521;BME280;58442;52.716;23.560;2023-07-16T10:16:36;101247.42;;;33.34;41.04
70521;BME280;58442;52.716;23.560;2023-07-16T10:18:49;101247.99;;;33.38;40.86
70521;BME280;58442;52.716;23.560;2023-07-16T10:21:02;101249.83;;;33.41;40.70
70521;BME280;58442;52.716;23.560;2023-07-16T10:23:11;101241.95;;;33.45;40.52
70521;BME280;58442;52.716;23.560;2023-07-16T10:25:24;101245.30;;;33.49;40.32
70521;BME280;58442;52.716;23.560;2023-07-16T10:27:30;101236.92;;;33.55;40.32
70521;BME280;58442;52.716;23.560;2023-07-16T10:29:32;101251.09;;;33.60;40.23
70521;BME280;58442;52.716;23.560;2023-07-16T10:31:39;101232.69;;;33.65;40.25
70521;BME280;58442;52.716;23.560;2023-07-16T10:33:40;101241.42;;;33.67;40.05
70521;BME280;58442;52.716;23.560;2023-07-16T10:35:44;101243.26;;;33.70;40.09
70521;BME280;58442;52.716;23.560;2023-07-16T10:37:46;101235.34;;;33.74;40.10
70521;BME280;58442;52.716;23.560;2023-07-16T10:39:58;101223.34;;;33.79;40.08
70521;BME280;58442;52.716;23.560;2023-07-16T10:42:01;101229.31;;;33.87;39.88
70521;BME280;58442;52.716;23.560;2023-07-16T10:44:04;101217.26;;;33.86;39.85
70521;BME280;58442;52.716;23.560;2023-07-16T10:46:05;101217.11;;;33.95;39.78